createdAt,value
2022-09-20T00:01:32.521Z,14.75
2022-09-20T00:04:05.098Z,14.72
2022-09-20T00:06:33.260Z,14.72
2022-09-20T00:09:01.439Z,14.73
2022-09-20T00:11:32.700Z,14.75
2022-09-20T00:14:01.645Z,14.75
2022-09-20T00:16:35.801Z,14.72
2022-09-20T00:19:04.641Z,14.76
2022-09-20T00:21:34.974Z,14.75
2022-09-20T00:24:02.383Z,14.74
2022-09-20T00:26:30.240Z,14.73
2022-09-20T00:28:58.633Z,14.70
2022-09-20T00:31:26.265Z,14.72
2022-09-20T00:34:16.304Z,14.74
2022-09-20T00:36:44.823Z,14.72
2022-09-20T00:39:14.487Z,14.71
2022-09-20T00:41:41.614Z,14.73
2022-09-20T00:45:03.572Z,14.68
2022-09-20T00:47:59.675Z,14.65
2022-09-20T00:50:43.086Z,14.67
2022-09-20T00:53:13.453Z,14.63
2022-09-20T00:55:53.048Z,14.67
2022-09-20T00:58:21.853Z,14.63
2022-09-20T01:00:52.230Z,14.64
2022-09-20T01:03:23.063Z,14.65
2022-09-20T01:05:54.799Z,14.62
2022-09-20T01:08:25.275Z,14.61
2022-09-20T01:10:53.643Z,14.61
2022-09-20T01:13:20.627Z,14.62
2022-09-20T01:15:49.351Z,14.61
2022-09-20T01:18:19.453Z,14.61
2022-09-20T01:20:47.845Z,14.61
2022-09-20T01:23:40.942Z,14.60
2022-09-20T01:26:32.609Z,14.59
2022-09-20T01:29:34.147Z,14.60
2022-09-20T01:32:06.235Z,14.58
2022-09-20T01:34:43.951Z,14.58
2022-09-20T01:37:21.803Z,14.58
2022-09-20T01:40:18.864Z,14.58
2022-09-20T01:43:45.515Z,14.51
2022-09-20T01:46:25.983Z,14.54
2022-09-20T01:49:18.883Z,14.53
2022-09-20T01:52:35.345Z,14.49
2022-09-20T01:55:39.970Z,14.49
2022-09-20T01:59:01.912Z,14.46
2022-09-20T02:01:55.740Z,14.45
2022-09-20T02:05:09.295Z,14.45
2022-09-20T02:08:27.144Z,14.42
2022-09-20T02:11:50.164Z,14.40
2022-09-20T02:14:57.919Z,14.40
2022-09-20T02:17:39.854Z,14.35
2022-09-20T02:20:37.835Z,14.34
2022-09-20T02:23:19.954Z,14.32
2022-09-20T02:26:31.976Z,14.31
2022-09-20T02:29:27.290Z,14.31
2022-09-20T02:32:29.287Z,14.30
2022-09-20T02:35:43.942Z,14.31
2022-09-20T02:38:46.419Z,14.28
2022-09-20T02:41:28.135Z,14.28
2022-09-20T02:44:12.627Z,14.28
2022-09-20T02:47:09.619Z,14.28
2022-09-20T02:50:04.347Z,14.30
2022-09-20T02:52:59.124Z,14.28
2022-09-20T02:55:43.576Z,14.29
2022-09-20T02:58:37.215Z,14.29
2022-09-20T03:01:25.099Z,14.27
2022-09-20T03:04:24.982Z,14.31
2022-09-20T03:07:06.628Z,14.25
2022-09-20T03:10:07.048Z,14.28
2022-09-20T03:12:49.361Z,14.26
2022-09-20T03:15:40.162Z,14.25
2022-09-20T03:18:18.549Z,14.20
2022-09-20T03:21:32.133Z,14.18
2022-09-20T03:24:46.512Z,14.15
2022-09-20T03:27:58.971Z,14.18
2022-09-20T03:30:52.282Z,14.12
2022-09-20T03:33:47.221Z,14.11
2022-09-20T03:36:54.737Z,14.08
2022-09-20T03:39:46.182Z,14.08
2022-09-20T03:42:25.185Z,14.05
2022-09-20T03:46:01.151Z,14.06
2022-09-20T03:48:50.930Z,14.05
2022-09-20T03:52:14.246Z,14.01
2022-09-20T03:54:54.854Z,14.01
2022-09-20T03:57:29.257Z,13.94
2022-09-20T04:00:02.747Z,13.95
2022-09-20T04:03:16.708Z,13.93
2022-09-20T04:06:40.644Z,13.88
2022-09-20T04:09:43.722Z,13.84
2022-09-20T04:13:05.294Z,13.80
2022-09-20T04:16:12.743Z,13.82
2022-09-20T04:19:10.590Z,13.78
2022-09-20T04:22:00.583Z,13.70
2022-09-20T04:25:09.699Z,13.67
2022-09-20T04:27:58.467Z,13.66
2022-09-20T04:30:29.859Z,13.63
2022-09-20T04:33:21.954Z,13.53
2022-09-20T04:36:29.782Z,13.53
2022-09-20T04:39:33.195Z,13.52
2022-09-20T04:42:54.853Z,13.50
2022-09-20T04:45:56.102Z,13.48
2022-09-20T04:49:05.814Z,13.46
2022-09-20T04:52:14.563Z,13.45
2022-09-20T04:55:15.075Z,13.45
2022-09-20T04:58:21.599Z,13.47
2022-09-20T05:01:16.818Z,13.48
2022-09-20T05:04:17.350Z,13.48
2022-09-20T05:07:21.423Z,13.49
2022-09-20T05:10:25.788Z,13.52
2022-09-20T05:13:31.046Z,13.49
2022-09-20T05:16:08.885Z,13.52
2022-09-20T05:18:45.553Z,13.52
2022-09-20T05:21:18.382Z,13.51
2022-09-20T05:24:12.056Z,13.53
2022-09-20T05:27:07.180Z,13.58
2022-09-20T05:30:23.913Z,13.58
2022-09-20T05:33:23.756Z,15.56
2022-09-20T05:36:31.207Z,16.72
2022-09-20T05:39:16.395Z,17.61
2022-09-20T05:41:56.373Z,18.14
2022-09-20T05:45:18.149Z,18.62
2022-09-20T05:48:01.835Z,18.93
2022-09-20T05:51:18.654Z,19.15
2022-09-20T05:54:33.400Z,19.32
2022-09-20T05:57:29.392Z,19.44
2022-09-20T06:00:14.418Z,19.53
2022-09-20T06:02:59.920Z,19.58
2022-09-20T06:05:59.325Z,19.65
2022-09-20T06:08:41.866Z,19.67
2022-09-20T06:11:33.703Z,19.72
2022-09-20T06:14:39.354Z,19.77
2022-09-20T06:17:32.555Z,19.79
2022-09-20T06:20:12.191Z,19.80
2022-09-20T06:22:55.360Z,19.81
2022-09-20T06:25:43.010Z,19.83
2022-09-20T06:28:21.190Z,19.87
2022-09-20T06:30:53.029Z,19.88
2022-09-20T06:33:28.984Z,19.90
2022-09-20T06:36:29.720Z,19.90
2022-09-20T06:39:40.915Z,19.91
2022-09-20T06:42:10.181Z,19.94
2022-09-20T06:44:41.335Z,19.96
2022-09-20T06:47:14.477Z,19.99
2022-09-20T06:49:42.771Z,19.99
2022-09-20T06:52:22.801Z,20.00
2022-09-20T06:54:56.159Z,20.02
2022-09-20T06:57:37.912Z,20.03
2022-09-20T07:00:11.510Z,20.02
2022-09-20T07:02:38.667Z,20.04
2022-09-20T07:05:07.571Z,20.04
2022-09-20T07:07:34.539Z,20.09
2022-09-20T07:10:01.615Z,20.10
2022-09-20T07:12:33.552Z,20.11
2022-09-20T07:15:00.558Z,20.10
2022-09-20T07:17:27.639Z,20.13
2022-09-20T07:19:56.585Z,20.12
2022-09-20T07:22:23.763Z,20.14
2022-09-20T07:24:51.090Z,20.16
2022-09-20T07:27:18.389Z,20.17
2022-09-20T07:29:46.215Z,20.17
2022-09-20T07:32:13.418Z,20.16
2022-09-20T07:34:40.577Z,20.18
2022-09-20T07:37:07.542Z,20.19
2022-09-20T07:39:34.650Z,20.20
2022-09-20T07:42:06.091Z,20.21
2022-09-20T07:44:33.176Z,20.20
2022-09-20T07:47:01.088Z,20.21
2022-09-20T07:49:31.986Z,20.23
2022-09-20T07:51:59.276Z,20.25
2022-09-20T07:54:27.597Z,20.23
2022-09-20T07:56:55.139Z,20.25
2022-09-20T07:59:22.292Z,20.26
2022-09-20T08:01:49.618Z,20.24
2022-09-20T08:04:16.698Z,20.27
2022-09-20T08:06:45.470Z,20.26
2022-09-20T08:09:13.655Z,20.27
2022-09-20T08:11:42.827Z,20.28
2022-09-20T08:14:15.638Z,20.28
2022-09-20T08:16:49.748Z,20.27
2022-09-20T08:19:20.924Z,20.28
2022-09-20T08:21:49.988Z,20.29
2022-09-20T08:24:17.602Z,20.30
2022-09-20T08:26:45.118Z,20.29
2022-09-20T08:29:13.435Z,20.28
2022-09-20T08:31:42.411Z,20.23
2022-09-20T08:34:12.532Z,20.27
2022-09-20T08:36:45.966Z,20.27
2022-09-20T08:42:36.693Z,20.30
2022-09-20T08:45:22.160Z,20.32
2022-09-20T08:48:00.359Z,20.30
2022-09-20T08:50:28.783Z,20.30
2022-09-20T08:53:00.721Z,20.33
2022-09-20T08:55:36.361Z,20.34
2022-09-20T08:58:08.583Z,20.31
2022-09-20T09:00:38.419Z,20.28
2022-09-20T09:03:12.254Z,20.27
2022-09-20T09:05:50.880Z,20.31
2022-09-20T09:08:28.414Z,20.25
2022-09-20T09:11:10.770Z,20.27
2022-09-20T09:14:39.262Z,20.30
2022-09-20T09:17:07.682Z,20.33
2022-09-20T09:19:53.075Z,20.33
2022-09-20T09:22:46.160Z,20.34
2022-09-20T09:25:32.305Z,20.36
2022-09-20T09:28:25.430Z,20.36
2022-09-20T09:30:52.474Z,20.34
2022-09-20T09:33:30.382Z,20.36
2022-09-20T09:36:10.786Z,20.35
2022-09-20T09:38:41.902Z,20.35
2022-09-20T09:41:26.724Z,20.36
2022-09-20T09:44:23.788Z,20.33
2022-09-20T09:46:53.708Z,20.35
2022-09-20T09:49:27.294Z,20.34
2022-09-20T09:52:02.777Z,20.36
2022-09-20T09:54:52.422Z,20.38
2022-09-20T09:57:55.800Z,20.40
2022-09-20T10:00:27.210Z,20.41
2022-09-20T10:03:44.046Z,20.38
2022-09-20T10:06:25.562Z,20.38
2022-09-20T10:09:18.985Z,20.37
2022-09-20T10:12:00.654Z,20.32
2022-09-20T10:15:07.747Z,20.31
2022-09-20T10:18:02.164Z,20.36
2022-09-20T10:21:03.263Z,20.44
2022-09-20T10:24:04.475Z,20.42
2022-09-20T10:26:40.228Z,20.42
2022-09-20T10:29:50.723Z,20.43
2022-09-20T10:32:40.391Z,20.44
2022-09-20T10:35:14.211Z,20.46
2022-09-20T10:38:21.699Z,20.47
2022-09-20T10:41:15.795Z,20.42
2022-09-20T10:44:05.125Z,20.48
2022-09-20T10:47:14.374Z,20.48
2022-09-20T10:50:29.393Z,20.46
2022-09-20T10:53:39.986Z,20.43
2022-09-20T10:56:31.852Z,20.47
2022-09-20T10:59:23.232Z,20.51
2022-09-20T11:02:27.359Z,20.57
2022-09-20T11:05:18.899Z,20.56
2022-09-20T11:07:52.582Z,20.56
2022-09-20T11:10:52.112Z,20.57
2022-09-20T11:13:45.739Z,20.56
2022-09-20T11:16:18.623Z,20.58
2022-09-20T11:19:27.004Z,20.59
2022-09-20T11:22:21.740Z,20.58
2022-09-20T11:25:00.656Z,20.48
2022-09-20T11:27:46.247Z,20.59
2022-09-20T11:30:23.340Z,20.60
2022-09-20T11:33:17.361Z,20.58
2022-09-20T11:36:01.868Z,20.62
2022-09-20T11:38:53.092Z,20.67
2022-09-20T11:41:29.520Z,20.67
2022-09-20T11:44:12.095Z,20.67
2022-09-20T11:47:01.719Z,20.66
2022-09-20T11:50:07.722Z,20.66
2022-09-20T11:53:05.145Z,20.67
2022-09-20T11:55:52.435Z,20.67
2022-09-20T11:58:22.480Z,20.68
2022-09-20T12:00:55.456Z,20.70
2022-09-20T12:03:41.580Z,20.67
2022-09-20T12:06:26.362Z,20.68
2022-09-20T12:08:53.708Z,20.67
2022-09-20T12:11:41.297Z,20.67
2022-09-20T12:14:23.854Z,20.70
2022-09-20T12:16:51.780Z,20.71
2022-09-20T12:19:21.515Z,20.70
2022-09-20T12:22:00.564Z,20.70
2022-09-20T12:24:45.460Z,20.71
2022-09-20T12:27:29.223Z,20.70
2022-09-20T12:30:19.352Z,20.71
2022-09-20T12:32:58.757Z,20.70
2022-09-20T12:35:39.094Z,20.75
2022-09-20T12:38:21.166Z,20.73
2022-09-20T12:41:10.158Z,20.72
2022-09-20T12:43:58.571Z,20.74
2022-09-20T12:46:56.665Z,20.72
2022-09-20T12:49:49.553Z,20.72
2022-09-20T12:53:06.307Z,20.73
2022-09-20T12:55:43.741Z,20.72
2022-09-20T12:58:16.385Z,20.75
2022-09-20T13:01:00.978Z,20.76
2022-09-20T13:03:39.283Z,20.75
2022-09-20T13:06:10.933Z,20.75
2022-09-20T13:08:58.830Z,20.76
2022-09-20T13:11:41.974Z,20.77
2022-09-20T13:14:18.430Z,20.76
2022-09-20T13:17:01.394Z,20.77
2022-09-20T13:19:41.482Z,20.78
2022-09-20T13:22:12.551Z,20.79
2022-09-20T13:24:48.997Z,20.78
2022-09-20T13:27:28.970Z,20.78
2022-09-20T13:30:08.765Z,20.80
2022-09-20T13:32:36.016Z,20.82
2022-09-20T13:35:18.272Z,20.80
2022-09-20T13:38:10.029Z,20.81
2022-09-20T13:40:47.804Z,20.81
2022-09-20T13:43:37.676Z,20.81
2022-09-20T13:46:14.097Z,20.82
2022-09-20T13:48:42.584Z,20.82
2022-09-20T13:51:24.642Z,20.83
2022-09-20T13:53:51.843Z,20.82
2022-09-20T13:56:30.015Z,20.85
2022-09-20T13:59:00.972Z,20.83
2022-09-20T14:01:32.445Z,20.81
2022-09-20T14:04:13.665Z,20.84
2022-09-20T14:06:42.477Z,20.84
2022-09-20T14:09:41.598Z,20.84
2022-09-20T14:12:11.298Z,20.84
2022-09-20T14:14:39.075Z,20.85
2022-09-20T14:17:09.578Z,20.84
2022-09-20T14:19:42.575Z,20.86
2022-09-20T14:22:20.912Z,20.86
2022-09-20T14:24:59.530Z,20.85
2022-09-20T14:27:26.594Z,20.87
2022-09-20T14:29:56.290Z,20.85
2022-09-20T14:32:44.947Z,20.85
2022-09-20T14:35:21.921Z,20.87
2022-09-20T14:37:55.335Z,20.87
2022-09-20T14:40:30.403Z,20.86
2022-09-20T14:43:00.413Z,20.86
2022-09-20T14:45:34.625Z,20.86
2022-09-20T14:48:11.893Z,20.87
2022-09-20T14:51:07.591Z,20.86
2022-09-20T14:53:37.187Z,20.87
2022-09-20T14:56:07.239Z,20.88
2022-09-20T14:59:09.581Z,20.86
2022-09-20T15:01:42.375Z,20.88
2022-09-20T15:04:23.518Z,19.34
2022-09-20T15:06:53.198Z,19.21
2022-09-20T15:09:21.955Z,19.21
2022-09-20T15:12:16.369Z,19.31
2022-09-20T15:14:44.218Z,19.24
2022-09-20T15:17:20.326Z,19.21
2022-09-20T15:19:50.375Z,19.23
2022-09-20T15:22:17.793Z,19.23
2022-09-20T15:24:44.855Z,19.32
2022-09-20T15:27:15.449Z,19.30
2022-09-20T15:29:45.152Z,19.41
2022-09-20T15:32:12.191Z,19.37
2022-09-20T15:34:39.303Z,19.25
2022-09-20T15:37:06.329Z,19.22
2022-09-20T15:39:34.490Z,19.16
2022-09-20T15:42:02.551Z,19.13
2022-09-20T15:44:29.802Z,19.24
2022-09-20T15:46:59.369Z,19.30
2022-09-20T15:49:28.627Z,19.35
2022-09-20T15:51:55.735Z,19.36
2022-09-20T15:54:22.815Z,19.47
2022-09-20T15:56:53.339Z,19.47
2022-09-20T15:59:23.231Z,19.40
2022-09-20T16:01:51.710Z,19.44
2022-09-20T16:04:19.915Z,19.41
2022-09-20T16:06:49.712Z,19.47
2022-09-20T16:09:18.290Z,19.47
2022-09-20T16:11:47.058Z,19.43
2022-09-20T16:14:14.484Z,19.37
2022-09-20T16:16:41.962Z,19.36
2022-09-20T16:19:20.106Z,19.36
2022-09-20T16:21:58.881Z,19.34
2022-09-20T16:24:34.013Z,19.35
2022-09-20T16:27:03.885Z,19.34
2022-09-20T16:29:32.129Z,19.35
2022-09-20T16:32:03.412Z,19.29
2022-09-20T16:34:34.615Z,19.25
2022-09-20T16:37:10.395Z,19.29
2022-09-20T16:39:37.770Z,19.20
2022-09-20T16:42:07.523Z,19.04
2022-09-20T16:44:37.254Z,18.92
2022-09-20T16:47:08.984Z,18.83
2022-09-20T16:49:37.376Z,18.75
2022-09-20T16:52:06.199Z,18.61
2022-09-20T16:54:33.871Z,18.59
2022-09-20T16:57:01.471Z,18.51
2022-09-20T16:59:28.649Z,18.43
2022-09-20T17:01:55.725Z,18.40
2022-09-20T17:04:23.179Z,18.23
2022-09-20T17:06:51.769Z,18.10
2022-09-20T17:09:18.992Z,17.98
2022-09-20T17:11:50.288Z,17.90
2022-09-20T17:14:20.578Z,17.84
2022-09-20T17:16:49.510Z,17.82
2022-09-20T17:19:20.785Z,17.78
2022-09-20T17:21:50.617Z,17.75
2022-09-20T17:24:20.728Z,17.74
2022-09-20T17:26:49.003Z,17.73
2022-09-20T17:29:18.200Z,17.73
2022-09-20T17:31:53.969Z,17.68
2022-09-20T17:34:22.246Z,17.62
2022-09-20T17:36:50.824Z,17.63
2022-09-20T17:39:18.498Z,17.63
2022-09-20T17:41:48.927Z,17.57
2022-09-20T17:44:16.744Z,17.38
2022-09-20T17:46:46.822Z,17.34
2022-09-20T17:49:20.772Z,17.29
2022-09-20T17:51:53.716Z,17.21
2022-09-20T17:54:21.984Z,17.19
2022-09-20T17:56:53.499Z,17.12
2022-09-20T17:59:21.278Z,17.09
2022-09-20T18:01:51.507Z,17.08
2022-09-20T18:04:20.916Z,16.99
2022-09-20T18:06:50.807Z,16.88
2022-09-20T18:09:21.458Z,16.88
2022-09-20T18:11:52.837Z,16.87
2022-09-20T18:14:27.351Z,16.81
2022-09-20T18:17:01.030Z,16.79
2022-09-20T18:19:34.473Z,16.77
2022-09-20T18:22:03.203Z,16.72
2022-09-20T18:24:31.035Z,16.71
2022-09-20T18:26:58.330Z,16.68
2022-09-20T18:29:25.351Z,16.65
2022-09-20T18:31:57.931Z,16.63
2022-09-20T18:34:32.081Z,16.58
2022-09-20T18:37:01.157Z,16.53
2022-09-20T18:39:33.738Z,16.49
2022-09-20T18:42:02.197Z,16.38
2022-09-20T18:44:32.362Z,16.36
2022-09-20T18:47:01.376Z,16.31
2022-09-20T18:49:29.508Z,16.26
2022-09-20T18:51:57.754Z,16.20
2022-09-20T18:54:24.885Z,16.18
2022-09-20T18:56:52.395Z,16.10
2022-09-20T18:59:25.251Z,16.07
2022-09-20T19:01:55.695Z,16.01
2022-09-20T19:05:06.797Z,15.95
2022-09-20T19:08:09.293Z,15.89
2022-09-20T19:10:56.331Z,15.85
2022-09-20T19:13:45.103Z,15.80
2022-09-20T19:16:21.899Z,15.74
2022-09-20T19:19:20.159Z,15.71
2022-09-20T19:22:31.878Z,15.58
2022-09-20T19:25:17.432Z,15.55
2022-09-20T19:27:45.023Z,15.48
2022-09-20T19:30:17.363Z,15.40
2022-09-20T19:32:45.619Z,15.36
2022-09-20T19:35:28.355Z,15.28
2022-09-20T19:38:24.419Z,15.21
2022-09-20T19:41:48.515Z,15.16
2022-09-20T19:44:53.052Z,15.10
2022-09-20T19:48:22.234Z,15.08
2022-09-20T19:50:52.627Z,15.05
2022-09-20T19:53:26.735Z,15.00
2022-09-20T19:56:16.637Z,14.96
2022-09-20T19:58:45.483Z,14.91
2022-09-20T20:01:13.508Z,14.90
2022-09-20T20:03:41.067Z,14.89
2022-09-20T20:06:36.908Z,14.69
2022-09-20T20:09:09.411Z,14.73
2022-09-20T20:11:54.176Z,14.67
2022-09-20T20:14:44.496Z,14.61
2022-09-20T20:17:45.591Z,14.51
2022-09-20T20:20:25.097Z,14.60
2022-09-20T20:23:02.560Z,14.57
2022-09-20T20:26:02.919Z,14.51
2022-09-20T20:28:30.796Z,14.53
2022-09-20T20:31:02.221Z,14.45
2022-09-20T20:33:30.823Z,14.38
2022-09-20T20:36:01.379Z,14.35
2022-09-20T20:38:30.156Z,14.32
2022-09-20T20:41:15.034Z,14.26
2022-09-20T20:43:43.813Z,14.23
2022-09-20T20:46:14.330Z,14.28
2022-09-20T20:48:42.198Z,14.29
2022-09-20T20:51:12.603Z,14.19
2022-09-20T20:53:47.055Z,14.18
2022-09-20T20:56:19.405Z,14.09
2022-09-20T20:58:47.912Z,14.04
2022-09-20T21:01:21.387Z,13.99
2022-09-20T21:03:54.229Z,13.92
2022-09-20T21:06:25.059Z,13.86
2022-09-20T21:08:52.698Z,13.76
2022-09-20T21:11:33.560Z,13.74
2022-09-20T21:14:03.210Z,13.68
2022-09-20T21:16:35.240Z,13.69
2022-09-20T21:19:04.686Z,13.65
2022-09-20T21:21:38.877Z,13.61
2022-09-20T21:24:09.069Z,13.57
2022-09-20T21:26:38.048Z,13.51
2022-09-20T21:29:08.372Z,13.47
2022-09-20T21:31:38.593Z,13.42
2022-09-20T21:34:07.942Z,13.37
2022-09-20T21:36:36.687Z,13.33
2022-09-20T21:39:05.472Z,13.30
2022-09-20T21:41:35.859Z,13.23
2022-09-20T21:44:05.394Z,13.20
2022-09-20T21:46:35.853Z,13.18
2022-09-20T21:49:05.545Z,13.04
2022-09-20T21:51:33.631Z,13.11
2022-09-20T21:54:02.105Z,13.11
2022-09-20T21:56:32.514Z,13.12
2022-09-20T21:59:02.178Z,13.07
2022-09-20T22:01:35.059Z,12.98
2022-09-20T22:04:08.262Z,12.93
2022-09-20T22:06:39.150Z,12.96
2022-09-20T22:09:18.000Z,13.00
2022-09-20T22:11:48.791Z,12.94
2022-09-20T22:14:19.590Z,12.95
2022-09-20T22:16:48.622Z,12.92
2022-09-20T22:19:18.271Z,12.88
2022-09-20T22:21:48.204Z,12.80
2022-09-20T22:24:16.583Z,12.81
2022-09-20T22:26:51.235Z,12.79
2022-09-20T22:29:18.692Z,12.76
2022-09-20T22:31:47.632Z,12.68
2022-09-20T22:34:22.582Z,12.73
2022-09-20T22:36:49.947Z,12.66
2022-09-20T22:39:17.608Z,12.65
2022-09-20T22:41:47.753Z,12.60
2022-09-20T22:44:14.978Z,12.59
2022-09-20T22:46:42.200Z,12.57
2022-09-20T22:49:10.179Z,12.52
2022-09-20T22:51:38.131Z,12.53
2022-09-20T22:54:08.795Z,12.52
2022-09-20T22:56:37.008Z,12.52
2022-09-20T22:59:07.835Z,12.48
2022-09-20T23:01:42.395Z,12.45
2022-09-20T23:04:13.786Z,12.44
2022-09-20T23:06:47.829Z,12.40
2022-09-20T23:09:18.005Z,12.41
2022-09-20T23:11:45.422Z,12.41
2022-09-20T23:14:18.701Z,12.38
2022-09-20T23:16:47.441Z,12.34
2022-09-20T23:19:15.527Z,12.34
2022-09-20T23:21:43.810Z,12.35
2022-09-20T23:24:13.488Z,12.21
2022-09-20T23:26:41.677Z,12.26
2022-09-20T23:29:14.978Z,12.20
2022-09-20T23:31:46.145Z,12.15
2022-09-20T23:34:14.765Z,12.11
2022-09-20T23:36:42.641Z,12.12
2022-09-20T23:39:10.945Z,11.99
2022-09-20T23:41:38.853Z,12.10
2022-09-20T23:44:06.801Z,12.03
2022-09-20T23:46:34.486Z,12.04
2022-09-20T23:49:02.392Z,12.00
2022-09-20T23:51:30.748Z,11.98
2022-09-20T23:53:57.834Z,11.93
2022-09-20T23:56:25.037Z,11.89
2022-09-20T23:58:52.171Z,11.89
